createdAt,value
2022-09-22T00:01:40.548Z,10.33
2022-09-22T00:16:44.913Z,9.79
2022-09-22T00:31:46.675Z,9.60
2022-09-22T00:46:52.864Z,9.88
2022-09-22T01:01:54.905Z,9.28
2022-09-22T01:16:56.427Z,9.54
2022-09-22T01:32:27.081Z,8.92
2022-09-22T01:47:40.789Z,8.85
2022-09-22T02:02:45.378Z,8.63
2022-09-22T02:17:47.126Z,9.60
2022-09-22T02:32:50.311Z,8.81
2022-09-22T02:47:54.010Z,8.90
2022-09-22T03:02:55.465Z,8.94
2022-09-22T03:17:56.955Z,9.19
2022-09-22T03:32:58.448Z,9.43
2022-09-22T03:48:00.149Z,9.03
2022-09-22T04:03:01.591Z,8.85
2022-09-22T04:18:03.078Z,8.98
2022-09-22T04:33:04.631Z,8.52
2022-09-22T04:48:06.088Z,8.84
2022-09-22T05:03:08.723Z,9.72
2022-09-22T05:18:10.212Z,10.23
2022-09-22T05:33:11.655Z,10.60
2022-09-22T05:48:13.140Z,13.45
2022-09-22T06:03:14.683Z,14.97
2022-09-22T06:18:23.441Z,13.17
2022-09-22T06:33:29.348Z,16.58
2022-09-22T06:48:32.063Z,16.96
2022-09-22T07:03:40.234Z,16.94
2022-09-22T07:18:46.091Z,17.10
2022-09-22T07:33:47.617Z,18.42
2022-09-22T07:48:49.194Z,16.25
2022-09-22T08:03:51.100Z,16.79
2022-09-22T08:18:56.780Z,14.79
2022-09-22T08:33:58.282Z,19.56
2022-09-22T08:49:24.997Z,18.53
2022-09-22T09:04:42.013Z,20.27
2022-09-22T09:19:45.586Z,19.28
2022-09-22T09:34:53.687Z,20.81
2022-09-22T09:49:57.282Z,20.46
2022-09-22T10:05:00.931Z,19.59
2022-09-22T10:20:22.138Z,18.29
2022-09-22T10:35:28.683Z,20.81
2022-09-22T10:50:42.433Z,20.61
2022-09-22T11:06:14.626Z,19.92
2022-09-22T11:21:16.418Z,20.43
2022-09-22T11:36:23.640Z,21.56
2022-09-22T11:51:28.167Z,20.46
2022-09-22T12:06:31.931Z,17.06
2022-09-22T12:21:52.566Z,17.42
2022-09-22T12:36:56.411Z,19.31
2022-09-22T12:51:58.675Z,16.73
2022-09-22T13:07:00.302Z,17.01
2022-09-22T13:22:14.920Z,17.32
2022-09-22T13:37:19.643Z,18.01
2022-09-22T13:52:23.310Z,16.35
2022-09-22T14:07:26.669Z,15.75
2022-09-22T14:22:29.423Z,15.81
2022-09-22T14:37:32.854Z,15.52
2022-09-22T14:52:35.750Z,14.88
2022-09-22T15:07:38.097Z,14.76
2022-09-22T15:22:39.888Z,14.74
2022-09-22T15:37:42.239Z,14.59
2022-09-22T15:52:45.285Z,14.06
2022-09-22T16:07:48.669Z,13.82
2022-09-22T16:22:50.138Z,13.11
2022-09-22T16:37:55.789Z,11.80
2022-09-22T16:52:57.322Z,12.40
2022-09-22T17:08:05.944Z,11.70
2022-09-22T17:23:08.200Z,11.36
2022-09-22T17:38:09.812Z,11.47
2022-09-22T17:53:30.008Z,11.54
2022-09-22T18:08:32.373Z,11.28
2022-09-22T18:23:33.813Z,11.27
2022-09-22T18:38:35.244Z,11.18
2022-09-22T18:53:36.715Z,10.81
2022-09-22T19:08:38.173Z,10.44
2022-09-22T19:23:41.726Z,10.56
2022-09-22T19:38:43.210Z,10.18
2022-09-22T19:53:44.727Z,10.35
2022-09-22T20:08:46.224Z,10.93
2022-09-22T20:23:47.716Z,10.88
2022-09-22T20:38:49.809Z,10.76
2022-09-22T20:53:51.349Z,10.66
2022-09-22T21:09:11.286Z,10.77
2022-09-22T21:24:12.761Z,11.01
2022-09-22T21:39:14.231Z,10.95
2022-09-22T21:54:19.304Z,11.13
2022-09-22T22:16:09.333Z,10.99
2022-09-22T22:31:12.387Z,10.81
2022-09-22T22:46:17.083Z,10.49
2022-09-22T23:01:23.083Z,10.42
2022-09-22T23:16:25.982Z,10.10
2022-09-22T23:31:27.843Z,9.98
2022-09-22T23:46:29.378Z,9.74
